Time;durP1;ratioP1;P1;durP2;ratioP2;P2;SDS_P1;SDS_P2;PMS_P1;PMS_P2;Temp;Humidity;BMP_temperature;BMP_pressure;BME280_temperature;BME280_humidity;BME280_pressure;Samples;Min_cycle;Max_cycle;Signal;HPM_P1;HPM_P2
2023/01/19 00:01:22;;;;;;;;;6.50;5.25;;;;;6.60;63.98;100276.13;5104549;27;45477;-65
2023/01/19 00:03:47;;;;;;;;;5.75;5.75;;;;;6.59;64.30;100279.69;5102881;27;46492;-65
2023/01/19 00:17:36;;;;;;;;;6.75;6.50;;;;;6.48;64.15;100268.44;4991632;22;45708;-82
2023/01/19 00:20:02;;;;;;;;;8.00;6.00;;;;;6.64;64.39;100290.19;5053806;28;45302;-82
2023/01/19 00:22:28;;;;;;;;;6.75;6.00;;;;;6.40;64.33;100249.19;5042402;28;45499;-82
2023/01/19 00:24:53;;;;;;;;;8.25;8.25;;;;;6.62;65.08;100297.31;5050721;28;45454;-82
2023/01/19 00:27:19;;;;;;;;;7.25;5.75;;;;;6.60;64.56;100291.16;5042293;28;46133;-82
2023/01/19 00:29:44;;;;;;;;;8.25;8.00;;;;;6.67;64.37;100291.00;5053235;28;45306;-82
2023/01/19 00:32:09;;;;;;;;;8.50;8.50;;;;;6.66;64.78;100294.53;5041693;28;45346;-82
2023/01/19 00:34:48;;;;;;;;;11.50;11.00;;;;;6.61;64.45;100296.44;5050676;28;45602;-82
2023/01/19 00:37:15;;;;;;;;;10.00;9.75;;;;;6.67;64.17;100312.22;5040500;28;47693;-82
2023/01/19 00:39:40;;;;;;;;;12.00;9.75;;;;;6.61;64.62;100296.44;5053880;28;45553;-82
2023/01/19 00:44:54;;;;;;;;;9.50;7.00;;;;;6.63;64.87;100291.97;5053357;28;45341;-82
2023/01/19 00:47:19;;;;;;;;;11.00;8.50;;;;;6.58;64.73;100280.63;5061022;28;45315;-82
2023/01/19 00:49:44;;;;;;;;;13.75;11.00;;;;;6.62;65.03;100299.97;5061740;28;45358;-82
2023/01/19 00:52:10;;;;;;;;;12.25;9.75;;;;;6.50;64.96;100287.88;5061987;28;45276;-82
2023/01/19 00:54:35;;;;;;;;;8.50;8.00;;;;;6.53;64.42;100298.38;5046700;28;45338;-82
2023/01/19 00:57:02;;;;;;;;;7.00;6.00;;;;;6.48;64.30;100289.66;5051666;28;45309;-82
2023/01/19 00:59:27;;;;;;;;;10.50;10.50;;;;;6.49;64.57;100294.94;5041832;28;45412;-82
2023/01/19 01:01:52;;;;;;;;;13.00;10.50;;;;;6.55;64.38;100315.16;5041793;28;45341;-82
2023/01/19 01:04:18;;;;;;;;;11.75;10.75;;;;;6.48;64.84;100297.63;5053450;28;45434;-82
2023/01/19 01:06:43;;;;;;;;;9.50;9.50;;;;;6.53;64.83;100316.09;5047481;28;47405;-82
2023/01/19 01:09:11;;;;;;;;;15.00;10.00;;;;;6.51;64.57;100318.75;5052047;28;46368;-82
2023/01/19 01:11:41;;;;;;;;;10.00;10.00;;;;;6.55;64.73;100330.16;5042146;28;45324;-82
2023/01/19 01:14:08;;;;;;;;;11.00;10.75;;;;;6.53;64.83;100332.84;5057585;28;46011;-82
2023/01/19 01:16:34;;;;;;;;;11.50;10.25;;;;;6.48;65.01;100326.78;5057260;28;47248;-82
2023/01/19 01:18:59;;;;;;;;;12.75;11.25;;;;;6.49;64.96;100334.72;5057484;28;45266;-82
2023/01/19 01:21:24;;;;;;;;;14.00;12.25;;;;;6.53;64.93;100335.50;5059473;28;45490;-82
2023/01/19 01:23:50;;;;;;;;;15.00;11.25;;;;;6.49;65.21;100332.06;5046656;28;45783;-82
2023/01/19 01:26:15;;;;;;;;;6.75;6.75;;;;;6.52;64.82;100344.38;5050182;28;46043;-82
2023/01/19 01:28:41;;;;;;;;;9.75;6.00;;;;;6.51;65.05;100349.72;5054023;28;45519;-82
2023/01/19 01:31:06;;;;;;;;;14.00;11.75;;;;;6.54;64.62;100347.00;5051273;28;45415;-82
2023/01/19 01:33:31;;;;;;;;;14.50;12.25;;;;;6.40;64.57;100329.63;5047765;28;45433;-82
2023/01/19 01:35:57;;;;;;;;;11.75;11.75;;;;;6.43;64.78;100339.28;5059192;28;45408;-82
2023/01/19 01:38:22;;;;;;;;;12.00;9.25;;;;;6.44;64.30;100343.69;5044204;28;45683;-82
2023/01/19 01:40:48;;;;;;;;;13.75;12.75;;;;;6.38;64.72;100338.50;5039964;28;45518;-82
2023/01/19 01:43:16;;;;;;;;;9.25;9.25;;;;;6.33;64.20;100341.25;5044183;28;45475;-82
2023/01/19 01:45:41;;;;;;;;;11.00;10.75;;;;;6.38;64.72;100370.31;5049832;28;47334;-82
2023/01/19 01:48:26;;;;;;;;;12.25;10.50;;;;;6.35;65.07;100365.97;5054223;28;45445;-82
2023/01/19 01:51:22;;;;;;;;;15.25;12.75;;;;;6.37;64.37;100376.53;5040951;28;45275;-82
2023/01/19 01:53:57;;;;;;;;;15.00;12.50;;;;;6.27;65.19;100359.94;5048817;28;45278;-82
2023/01/19 01:56:28;;;;;;;;;10.00;10.00;;;;;6.36;64.39;100375.66;5042572;28;46283;-82
2023/01/19 01:58:54;;;;;;;;;17.00;15.75;;;;;6.37;64.56;100374.75;5045192;28;45255;-82
2023/01/19 02:04:04;;;;;;;;;11.75;11.00;;;;;6.35;64.77;100375.69;5040759;28;45491;-80
2023/01/19 02:06:29;;;;;;;;;12.50;12.00;;;;;6.30;65.36;100368.72;5044151;28;47327;-80
2023/01/19 02:14:36;;;;;;;;;15.75;12.25;;;;;6.33;64.82;100372.19;5048105;28;45294;-80
2023/01/19 02:17:02;;;;;;;;;18.75;16.00;;;;;6.34;64.66;100388.06;5043590;28;45287;-80
2023/01/19 02:19:36;;;;;;;;;15.75;12.00;;;;;6.32;65.17;100386.38;5040389;28;45535;-80
2023/01/19 02:22:14;;;;;;;;;9.75;9.25;;;;;6.20;64.96;100366.25;5039432;28;45308;-80
2023/01/19 02:24:40;;;;;;;;;18.50;15.75;;;;;6.35;65.49;100391.59;5040702;28;45242;-80
2023/01/19 02:27:06;;;;;;;;;12.75;11.00;;;;;6.35;64.63;100404.84;5050520;28;47119;-80
2023/01/19 02:29:33;;;;;;;;;15.00;13.50;;;;;6.29;64.87;100382.00;5051694;28;45754;-80
2023/01/19 02:32:00;;;;;;;;;17.75;15.00;;;;;6.27;65.63;100389.97;5042050;28;45284;-81
2023/01/19 02:34:27;;;;;;;;;14.50;14.50;;;;;6.27;64.79;100389.97;5047560;28;45425;-81
2023/01/19 02:36:57;;;;;;;;;16.25;13.25;;;;;6.30;65.45;100405.81;5070581;27;47319;-80
2023/01/19 02:39:28;;;;;;;;;13.00;12.25;;;;;6.24;65.20;100389.16;5045509;28;45751;-80
2023/01/19 02:42:00;;;;;;;;;16.75;14.00;;;;;6.25;65.01;100396.22;5058371;28;45276;-80
2023/01/19 02:44:26;;;;;;;;;21.25;12.00;;;;;6.30;65.01;100397.88;5059079;28;46126;-80
2023/01/19 02:46:55;;;;;;;;;15.00;12.75;;;;;6.17;64.81;100376.94;5054972;28;47223;-80
2023/01/19 02:49:21;;;;;;;;;16.00;12.25;;;;;6.25;65.05;100385.63;5045172;28;46079;-80
2023/01/19 02:51:47;;;;;;;;;11.25;10.25;;;;;6.23;64.26;100383.00;5042054;28;45320;-80
2023/01/19 02:54:35;;;;;;;;;14.00;11.00;;;;;6.25;65.13;100385.63;5059735;28;45392;-80
2023/01/19 02:57:29;;;;;;;;;16.50;13.00;;;;;6.25;64.95;100375.88;5049118;28;46169;-80
2023/01/19 03:00:13;;;;;;;;;11.25;10.00;;;;;6.25;65.17;100377.66;5033445;28;45600;-80
2023/01/19 03:02:39;;;;;;;;;11.75;10.75;;;;;6.25;64.91;100391.78;5043506;28;45271;-80
2023/01/19 03:05:33;;;;;;;;;19.00;14.25;;;;;6.23;64.68;100384.75;5048330;28;45467;-80
2023/01/19 03:08:07;;;;;;;;;23.50;17.00;;;;;6.21;64.47;100387.44;5046097;28;48076;-80
2023/01/19 03:10:57;;;;;;;;;19.50;13.75;;;;;6.16;64.52;100383.13;5039547;28;46041;-80
2023/01/19 03:13:52;;;;;;;;;7.50;6.75;;;;;6.18;65.41;100386.63;5053941;28;45524;-80
2023/01/19 03:16:24;;;;;;;;;15.75;14.75;;;;;6.12;64.95;100392.94;5057480;28;45248;-80
2023/01/19 03:18:57;;;;;;;;;10.00;10.00;;;;;6.07;65.34;100385.06;5051961;28;46323;-80
2023/01/19 03:21:26;;;;;;;;;17.50;11.75;;;;;6.01;64.15;100379.88;5046409;28;46181;-80
2023/01/19 03:23:57;;;;;;;;;13.00;11.50;;;;;6.08;65.33;100386.81;5053083;28;45304;-80
2023/01/19 03:26:29;;;;;;;;;8.75;8.75;;;;;6.08;65.10;100384.19;5050350;28;45542;-80
2023/01/19 03:28:58;;;;;;;;;9.00;9.00;;;;;6.08;64.95;100384.19;5059490;28;45938;-80
2023/01/19 03:31:27;;;;;;;;;15.25;15.00;;;;;6.03;65.39;100372.78;5047320;28;45413;-80
2023/01/19 03:34:05;;;;;;;;;13.00;11.00;;;;;5.94;65.13;100359.69;5050234;28;46075;-80
2023/01/19 03:36:43;;;;;;;;;15.25;14.00;;;;;6.00;64.81;100383.44;5068484;28;45342;-80
2023/01/19 03:39:10;;;;;;;;;16.75;13.25;;;;;5.92;65.10;100388.00;5052143;28;45414;-80
2023/01/19 03:41:40;;;;;;;;;13.25;9.75;;;;;5.90;64.88;100389.81;5054183;28;45320;-80
2023/01/19 03:44:06;;;;;;;;;13.50;13.25;;;;;5.66;65.86;100356.69;5057564;28;45380;-80
2023/01/19 03:46:32;;;;;;;;;19.50;14.25;;;;;5.86;65.39;100398.69;5050986;28;46860;-80
2023/01/19 03:48:58;;;;;;;;;14.00;14.00;;;;;5.86;65.24;100393.38;5038032;28;47537;-80
2023/01/19 03:51:25;;;;;;;;;16.75;13.25;;;;;5.83;65.42;100396.09;5038114;28;45464;-80
2023/01/19 03:53:50;;;;;;;;;14.50;13.75;;;;;5.78;65.09;100390.91;5048428;28;45413;-80
2023/01/19 03:56:18;;;;;;;;;14.50;10.00;;;;;5.78;65.12;100396.19;5042003;28;45353;-80
2023/01/19 03:58:44;;;;;;;;;16.00;14.75;;;;;5.78;65.06;100404.16;5038895;28;45696;-80
2023/01/19 04:01:09;;;;;;;;;18.50;14.50;;;;;5.77;66.07;100407.69;5038238;28;45940;-80
2023/01/19 04:03:35;;;;;;;;;16.50;13.25;;;;;5.66;65.58;100389.31;5039116;28;45224;-80
2023/01/19 04:06:01;;;;;;;;;17.50;15.00;;;;;5.61;65.49;100375.28;5038838;28;45429;-80
2023/01/19 04:08:26;;;;;;;;;20.75;15.25;;;;;5.80;65.30;100404.09;5047684;28;45260;-80
2023/01/19 04:10:52;;;;;;;;;17.25;15.50;;;;;5.81;65.64;100401.41;5054521;28;45418;-80
2023/01/19 04:13:17;;;;;;;;;20.75;15.25;;;;;5.79;65.41;100395.28;5039111;28;45452;-80
2023/01/19 04:15:43;;;;;;;;;19.50;14.00;;;;;5.80;65.20;100402.34;5038313;28;45596;-80
2023/01/19 04:18:08;;;;;;;;;22.75;15.00;;;;;5.77;65.79;100388.28;5044799;28;45442;-80
2023/01/19 04:20:33;;;;;;;;;18.00;15.25;;;;;5.80;66.08;100402.34;5052821;28;45648;-80
2023/01/19 04:23:00;;;;;;;;;19.75;16.25;;;;;5.85;65.96;100400.47;5037334;28;45355;-80
2023/01/19 04:25:26;;;;;;;;;19.50;18.25;;;;;5.77;65.21;100399.75;5051432;28;45430;-80
2023/01/19 04:27:53;;;;;;;;;19.00;14.75;;;;;5.74;65.43;100407.72;5038466;28;45579;-80
2023/01/19 04:30:19;;;;;;;;;16.25;13.50;;;;;5.72;65.84;100407.75;5037882;28;45358;-80
2023/01/19 04:32:45;;;;;;;;;16.25;13.25;;;;;5.64;65.54;100387.63;5048957;28;45308;-80
2023/01/19 04:35:10;;;;;;;;;14.50;12.75;;;;;5.71;66.14;100403.38;5056903;28;45251;-80
2023/01/19 04:37:36;;;;;;;;;18.75;14.25;;;;;5.69;65.68;100399.84;5056275;28;48289;-80
2023/01/19 04:40:01;;;;;;;;;15.00;14.00;;;;;5.51;65.92;100371.97;5046777;28;45267;-80
2023/01/19 04:42:26;;;;;;;;;17.75;14.50;;;;;5.58;65.89;100385.97;5039552;28;45348;-80
2023/01/19 04:44:52;;;;;;;;;17.00;14.00;;;;;5.67;66.19;100400.81;5038289;28;45573;-80
2023/01/19 04:47:18;;;;;;;;;9.25;6.75;;;;;5.66;66.20;100401.69;5047733;28;47465;-80
2023/01/19 04:49:44;;;;;;;;;22.00;16.00;;;;;5.66;66.18;100399.91;5058815;28;45360;-80
2023/01/19 04:52:09;;;;;;;;;14.50;14.25;;;;;5.58;65.98;100383.31;5041911;28;45321;-80
2023/01/19 04:54:35;;;;;;;;;18.75;17.00;;;;;5.59;65.70;100385.03;5044229;28;45290;-80
2023/01/19 04:57:00;;;;;;;;;16.50;13.50;;;;;5.65;65.72;100390.25;5051639;28;46087;-80
2023/01/19 04:59:25;;;;;;;;;17.50;14.00;;;;;5.60;66.66;100392.09;5055764;28;45308;-80
2023/01/19 05:01:51;;;;;;;;;19.00;14.75;;;;;5.61;65.99;100406.19;5051375;28;45594;-80
2023/01/19 05:04:16;;;;;;;;;25.25;17.75;;;;;5.60;66.16;100401.78;5056753;28;45636;-80
2023/01/19 05:06:42;;;;;;;;;18.00;17.00;;;;;5.60;65.87;100410.63;5050495;28;47103;-80
2023/01/19 05:09:07;;;;;;;;;19.00;15.00;;;;;5.56;66.57;100406.28;5054101;28;45615;-80
2023/01/19 05:11:34;;;;;;;;;17.50;14.00;;;;;5.53;66.73;100399.28;5051507;28;45438;-80
2023/01/19 05:13:59;;;;;;;;;13.00;12.75;;;;;5.52;65.93;100400.16;5040752;28;45445;-80
2023/01/19 05:16:25;;;;;;;;;15.50;12.50;;;;;5.47;66.16;100394.06;5048296;28;46808;-80
2023/01/19 05:18:51;;;;;;;;;12.25;12.25;;;;;5.51;66.51;100401.09;5056748;28;45209;-80
2023/01/19 05:21:16;;;;;;;;;11.00;11.00;;;;;5.49;66.05;100405.50;5041311;28;45331;-80
2023/01/19 05:23:42;;;;;;;;;13.00;10.75;;;;;5.48;66.27;100409.06;5057299;28;45227;-80
2023/01/19 05:26:07;;;;;;;;;15.00;13.00;;;;;5.46;66.42;100400.25;5060840;28;45234;-80
2023/01/19 05:28:33;;;;;;;;;13.00;12.25;;;;;5.50;66.70;100404.63;5047023;28;45397;-80
2023/01/19 05:30:58;;;;;;;;;10.75;9.25;;;;;5.38;66.57;100399.53;5041080;28;45643;-80
2023/01/19 05:33:24;;;;;;;;;12.00;12.00;;;;;5.37;66.25;100393.34;5040555;28;45391;-80
2023/01/19 05:35:51;;;;;;;;;13.00;12.50;;;;;5.33;66.54;100388.13;5056324;28;45458;-80
2023/01/19 05:38:17;;;;;;;;;12.00;9.25;;;;;5.33;66.62;100399.59;5042153;28;45298;-80
2023/01/19 05:40:42;;;;;;;;;16.25;14.75;;;;;5.25;66.49;100388.28;5040532;28;45551;-80
2023/01/19 05:43:07;;;;;;;;;15.50;11.25;;;;;5.35;66.37;100411.03;5045444;28;45473;-80
2023/01/19 05:45:33;;;;;;;;;8.25;8.25;;;;;5.15;66.46;100379.59;5059894;28;46970;-80
2023/01/19 05:47:59;;;;;;;;;15.50;10.00;;;;;5.37;66.26;100416.31;5058183;28;45386;-80
2023/01/19 05:50:24;;;;;;;;;13.50;10.50;;;;;5.38;66.38;100415.41;5052277;28;45700;-80
2023/01/19 05:52:52;;;;;;;;;10.00;9.75;;;;;5.44;66.36;100419.72;5040669;28;45381;-80
2023/01/19 05:55:18;;;;;;;;;13.00;10.50;;;;;5.41;67.19;100412.69;5039933;28;45436;-80
2023/01/19 05:57:43;;;;;;;;;8.50;6.75;;;;;5.44;66.53;100419.72;5039501;28;45755;-80
2023/01/19 06:00:09;;;;;;;;;9.25;8.50;;;;;5.38;66.11;100418.06;5039429;28;45446;-80
2023/01/19 06:02:35;;;;;;;;;11.25;9.50;;;;;5.28;66.02;100405.84;5053811;28;45492;-80
2023/01/19 06:05:01;;;;;;;;;9.50;9.00;;;;;5.20;66.72;100401.56;5048054;28;47207;-80
2023/01/19 06:07:26;;;;;;;;;8.75;7.75;;;;;5.22;66.99;100412.13;5057853;28;45338;-80
2023/01/19 06:09:51;;;;;;;;;13.50;12.25;;;;;5.18;66.77;100399.84;5044618;28;45298;-80
2023/01/19 06:12:17;;;;;;;;;10.00;8.75;;;;;5.28;66.70;100417.34;5056549;28;45299;-82
2023/01/19 06:14:43;;;;;;;;;17.00;9.50;;;;;5.30;66.96;100422.59;5049915;28;45552;-82
2023/01/19 06:17:08;;;;;;;;;11.50;9.00;;;;;5.29;66.82;100416.41;5052225;28;45474;-82
2023/01/19 06:19:33;;;;;;;;;10.50;10.50;;;;;5.26;66.71;100413.84;5059360;28;45316;-82
2023/01/19 06:21:59;;;;;;;;;13.25;9.75;;;;;5.14;67.45;100396.34;5058086;28;45676;-81
2023/01/19 06:24:25;;;;;;;;;6.25;6.25;;;;;5.30;66.86;100427.91;5051219;28;45874;-81
2023/01/19 06:26:50;;;;;;;;;8.25;7.75;;;;;5.31;67.64;100437.56;5054502;28;45263;-82
2023/01/19 06:29:16;;;;;;;;;7.25;7.25;;;;;5.25;66.99;100425.31;5058153;28;45347;-81
2023/01/19 06:31:41;;;;;;;;;9.50;8.25;;;;;5.22;66.85;100421.84;5055728;28;45284;-82
2023/01/19 06:34:07;;;;;;;;;10.50;6.50;;;;;5.31;67.31;100432.28;5040029;28;46063;-82
2023/01/19 06:36:33;;;;;;;;;9.00;7.25;;;;;5.32;67.07;100431.38;5054413;28;45489;-82
2023/01/19 06:39:02;;;;;;;;;10.25;9.00;;;;;5.22;66.95;100416.56;5066282;28;45489;-81
2023/01/19 06:41:28;;;;;;;;;9.75;6.00;;;;;5.19;66.51;100421.00;5039832;28;45322;-82
2023/01/19 06:43:53;;;;;;;;;7.00;6.50;;;;;5.24;66.58;100436.78;5047079;28;46051;-82
2023/01/19 06:46:19;;;;;;;;;9.25;8.00;;;;;5.13;66.03;100436.97;5046063;28;45274;-82
2023/01/19 06:48:44;;;;;;;;;11.00;9.25;;;;;5.16;66.92;100444.88;5038190;28;45438;-82
2023/01/19 06:51:09;;;;;;;;;7.75;5.25;;;;;5.12;67.07;100443.16;5054295;28;45291;-82
2023/01/19 06:53:35;;;;;;;;;9.00;8.50;;;;;5.13;67.21;100447.56;5057950;28;47924;-82
2023/01/19 06:56:01;;;;;;;;;10.00;9.50;;;;;5.08;66.98;100435.25;5057743;28;45370;-82
2023/01/19 06:58:28;;;;;;;;;10.75;9.00;;;;;5.14;67.21;100438.69;5039676;28;45283;-82
2023/01/19 07:00:53;;;;;;;;;10.75;7.00;;;;;5.19;67.00;100436.88;5038762;28;45461;-80
2023/01/19 07:03:21;;;;;;;;;11.25;7.00;;;;;5.04;67.63;100418.56;5043733;28;48474;-84
2023/01/19 07:05:51;;;;;;;;;16.50;11.25;;;;;5.02;67.16;100423.00;5052840;28;45690;-84
2023/01/19 07:08:16;;;;;;;;;10.00;9.00;;;;;5.22;67.03;100445.66;5046416;28;45362;-84
2023/01/19 07:10:42;;;;;;;;;5.25;5.00;;;;;5.21;66.92;100447.41;5044634;28;45415;-84
2023/01/19 07:13:07;;;;;;;;;7.25;6.50;;;;;5.10;67.19;100430.84;5046514;28;45489;-84
2023/01/19 07:15:32;;;;;;;;;7.50;5.50;;;;;5.20;66.78;100453.63;5040997;28;45918;-84
2023/01/19 07:17:58;;;;;;;;;13.25;8.75;;;;;5.00;67.26;100423.03;5050527;28;45284;-83
2023/01/19 07:20:24;;;;;;;;;11.00;10.00;;;;;4.99;67.09;100420.41;5048112;28;45441;-81
2023/01/19 07:22:55;;;;;;;;;10.75;7.50;;;;;5.04;67.24;100430.94;5066580;28;48004;-81
2023/01/19 07:25:21;;;;;;;;;10.50;7.75;;;;;4.99;67.20;100431.00;5039010;28;45228;-81
2023/01/19 07:27:46;;;;;;;;;4.75;4.75;;;;;5.00;67.17;100438.03;5056589;28;45482;-81
2023/01/19 07:30:14;;;;;;;;;8.75;8.75;;;;;4.92;66.99;100435.50;5049946;28;45484;-81
2023/01/19 07:32:41;;;;;;;;;7.25;7.25;;;;;4.98;67.35;100439.84;5046501;28;47180;-81
2023/01/19 07:35:07;;;;;;;;;2.00;2.00;;;;;4.91;67.09;100422.28;5052815;28;45337;-81
2023/01/19 07:37:33;;;;;;;;;7.25;7.25;;;;;4.96;67.50;100434.56;5038125;28;45315;-81
2023/01/19 07:40:02;;;;;;;;;5.25;5.25;;;;;4.97;67.82;100446.00;5052199;28;45566;-81
2023/01/19 07:42:27;;;;;;;;;0.75;0.00;;;;;4.89;67.25;100442.59;5042363;28;47356;-81
2023/01/19 07:44:52;;;;;;;;;7.25;7.25;;;;;4.94;67.99;100454.00;5055054;28;45282;-81
2023/01/19 07:47:18;;;;;;;;;8.00;6.75;;;;;4.83;67.47;100438.28;5048325;28;45919;-81
2023/01/19 07:49:43;;;;;;;;;9.25;9.25;;;;;4.94;67.82;100457.50;5065569;28;46048;-81
2023/01/19 07:52:09;;;;;;;;;10.50;9.00;;;;;4.99;68.08;100463.63;5055438;28;46210;-81
2023/01/19 07:54:34;;;;;;;;;10.50;10.00;;;;;4.95;67.97;100455.75;5045570;28;45491;-81
2023/01/19 07:57:00;;;;;;;;;17.75;15.25;;;;;4.92;68.13;100447.84;5056126;28;45296;-81
2023/01/19 07:59:29;;;;;;;;;16.50;12.75;;;;;4.95;67.35;100448.69;5039820;28;45317;-81
2023/01/19 08:01:58;;;;;;;;;12.75;11.50;;;;;4.99;67.50;100446.88;5050019;28;46800;-82
2023/01/19 08:04:24;;;;;;;;;14.25;11.25;;;;;4.90;67.60;100425.84;5050122;28;45748;-82
2023/01/19 08:06:50;;;;;;;;;17.00;14.00;;;;;5.01;67.38;100445.97;5049242;28;45509;-82
2023/01/19 08:09:15;;;;;;;;;15.50;13.75;;;;;5.04;67.68;100460.91;5049957;28;45402;-81
2023/01/19 08:11:40;;;;;;;;;11.25;9.00;;;;;4.93;67.55;100449.63;5048984;28;45956;-80
2023/01/19 08:14:06;;;;;;;;;17.75;14.00;;;;;5.05;67.73;100464.44;5051578;28;45376;-80
2023/01/19 08:16:31;;;;;;;;;15.00;10.75;;;;;5.09;67.65;100469.63;5039835;28;46655;-81
2023/01/19 08:18:56;;;;;;;;;19.50;18.00;;;;;5.12;67.95;100477.53;5050486;28;45504;-81
2023/01/19 08:21:22;;;;;;;;;16.50;13.75;;;;;5.08;67.95;100474.94;5062605;28;48476;-81
2023/01/19 08:23:54;;;;;;;;;10.50;7.50;;;;;5.10;67.84;100476.69;5047895;28;45272;-80
2023/01/19 08:26:31;;;;;;;;;17.50;16.00;;;;;5.14;68.19;100482.81;5053763;28;45758;-80
2023/01/19 08:29:02;;;;;;;;;17.25;14.00;;;;;5.15;67.65;100487.22;5047802;28;45555;-80
2023/01/19 08:31:28;;;;;;;;;18.00;14.25;;;;;5.16;68.37;100487.19;5051991;28;45459;-80
2023/01/19 08:33:53;;;;;;;;;13.25;12.75;;;;;5.15;68.03;100487.22;5050521;28;45938;-80
2023/01/19 08:36:21;;;;;;;;;18.00;16.25;;;;;5.19;67.58;100484.50;5060073;28;45463;-80
2023/01/19 08:38:47;;;;;;;;;17.50;13.25;;;;;5.16;68.24;100475.72;5057649;28;45497;-80
2023/01/19 08:41:13;;;;;;;;;10.50;10.50;;;;;5.22;67.59;100483.56;5055929;28;47083;-80
2023/01/19 08:43:38;;;;;;;;;21.00;16.50;;;;;5.18;67.17;100479.25;5053311;28;45747;-80
2023/01/19 08:46:04;;;;;;;;;15.75;15.75;;;;;5.17;67.97;100466.91;5055278;28;45636;-80
2023/01/19 08:48:29;;;;;;;;;15.00;12.50;;;;;5.21;67.55;100487.09;5051700;28;45445;-80
2023/01/19 08:50:55;;;;;;;;;17.75;14.75;;;;;5.20;67.34;100491.53;5039827;28;45893;-80
2023/01/19 08:53:24;;;;;;;;;14.00;14.00;;;;;5.05;67.21;100465.31;5051805;28;45303;-80
2023/01/19 08:55:56;;;;;;;;;19.00;13.50;;;;;5.06;67.94;100477.66;5049184;28;45423;-80
2023/01/19 08:58:22;;;;;;;;;16.50;14.50;;;;;5.13;67.96;100486.38;5052457;28;45699;-80
2023/01/19 09:00:47;;;;;;;;;13.00;8.50;;;;;5.06;68.05;100480.28;5068382;27;45703;-80
2023/01/19 09:03:13;;;;;;;;;18.75;15.25;;;;;5.10;67.93;100486.41;5055722;28;45808;-79
2023/01/19 09:05:39;;;;;;;;;22.25;18.00;;;;;5.01;67.81;100483.00;5050905;28;45390;-79
2023/01/19 09:08:10;;;;;;;;;17.00;15.00;;;;;5.09;67.88;100495.22;5040949;28;45477;-79
2023/01/19 09:10:36;;;;;;;;;17.75;14.75;;;;;5.12;67.25;100497.84;5039242;28;45307;-79
2023/01/19 09:13:09;;;;;;;;;21.00;15.50;;;;;5.16;67.32;100507.47;5057255;28;45479;-80
2023/01/19 09:15:36;;;;;;;;;19.25;17.25;;;;;5.15;67.92;100495.16;5046705;28;45286;-80
2023/01/19 09:18:03;;;;;;;;;20.50;17.75;;;;;5.11;67.33;100486.41;5042407;28;45511;-80
2023/01/19 09:20:30;;;;;;;;;17.50;15.50;;;;;5.13;67.45;100499.59;5052544;28;47200;-80
2023/01/19 09:22:57;;;;;;;;;17.50;17.50;;;;;5.08;67.95;100497.00;5039562;28;45330;-79
2023/01/19 09:25:23;;;;;;;;;22.50;17.75;;;;;5.00;67.99;100481.22;5050007;28;45432;-79
2023/01/19 09:27:48;;;;;;;;;18.75;16.50;;;;;4.99;68.15;100474.22;5048367;27;45419;-79
2023/01/19 09:30:15;;;;;;;;;19.00;18.00;;;;;5.01;67.88;100468.88;5046612;28;46237;-79
2023/01/19 09:32:41;;;;;;;;;16.75;15.00;;;;;5.14;68.05;100482.81;5052668;28;45930;-79
2023/01/19 09:35:07;;;;;;;;;20.75;16.50;;;;;5.04;67.92;100463.53;5047433;28;45499;-79
2023/01/19 09:37:32;;;;;;;;;18.75;13.50;;;;;5.13;68.13;100476.66;5057035;28;45770;-79
2023/01/19 09:39:58;;;;;;;;;17.25;16.50;;;;;5.19;67.88;100484.50;5055253;28;47095;-79
2023/01/19 09:42:42;;;;;;;;;22.75;21.00;;;;;5.17;67.38;100481.00;5059740;28;45331;-79
2023/01/19 09:45:17;;;;;;;;;19.25;16.75;;;;;5.28;67.77;100496.72;5048688;28;45299;-79
2023/01/19 09:47:47;;;;;;;;;25.00;18.50;;;;;5.29;68.37;100497.59;5056530;28;45462;-79
2023/01/19 09:50:25;;;;;;;;;22.50;19.75;;;;;5.31;68.75;100499.34;5053779;28;47277;-79
2023/01/19 09:52:59;;;;;;;;;24.00;22.00;;;;;5.23;67.79;100484.44;5055426;28;45277;-79
2023/01/19 09:55:26;;;;;;;;;19.00;14.25;;;;;5.34;68.26;100501.03;5055829;28;45375;-79
2023/01/19 09:57:52;;;;;;;;;22.25;20.50;;;;;5.37;69.03;100501.88;5052935;28;45678;-79
2023/01/19 10:00:18;;;;;;;;;17.75;17.75;;;;;5.34;67.81;100493.09;5045564;28;45517;-79
2023/01/19 10:02:51;;;;;;;;;21.75;16.50;;;;;5.33;68.50;100494.88;5040315;28;45774;-79
2023/01/19 10:06:02;;;;;;;;;25.00;18.00;;;;;5.33;68.22;100497.53;5053261;28;45388;-79
2023/01/19 10:08:27;;;;;;;;;20.50;18.75;;;;;5.35;68.57;100500.16;5008038;28;45597;-79
2023/01/19 10:10:55;;;;;;;;;22.50;20.00;;;;;5.26;67.99;100487.06;5042183;28;46392;-80
2023/01/19 10:13:53;;;;;;;;;28.00;23.75;;;;;5.39;68.60;100502.72;5044873;28;45388;-80
2023/01/19 10:16:38;;;;;;;;;19.00;14.75;;;;;5.39;68.28;100491.25;5043613;28;45483;-77
2023/01/19 10:19:26;;;;;;;;;23.25;21.00;;;;;5.47;68.68;100509.69;5058284;28;45489;-82
2023/01/19 10:21:56;;;;;;;;;24.75;22.75;;;;;5.35;67.87;100477.22;5046816;28;45423;-81
2023/01/19 10:24:42;;;;;;;;;23.00;21.75;;;;;5.42;68.21;100485.06;5052654;28;45757;-82
2023/01/19 10:27:16;;;;;;;;;26.25;20.00;;;;;5.48;68.47;100488.50;5039222;28;45390;-81
2023/01/19 10:29:43;;;;;;;;;25.00;22.75;;;;;5.53;68.82;100493.69;5050310;28;45309;-81
2023/01/19 10:32:15;;;;;;;;;25.00;22.25;;;;;5.49;68.24;100484.06;5042800;28;45361;-82
2023/01/19 10:34:41;;;;;;;;;19.00;14.25;;;;;5.41;68.09;100456.84;5053096;28;45323;-82
2023/01/19 10:37:18;;;;;;;;;22.50;20.75;;;;;5.65;68.53;100492.66;5047430;28;45415;-82
2023/01/19 10:39:53;;;;;;;;;20.00;18.50;;;;;5.56;68.36;100475.13;5046752;28;45581;-82
2023/01/19 10:42:19;;;;;;;;;19.50;19.50;;;;;5.53;68.22;100464.56;5055065;28;47144;-82
2023/01/19 10:44:45;;;;;;;;;16.00;14.50;;;;;5.57;67.96;100469.78;5048603;28;45431;-82
2023/01/19 10:47:18;;;;;;;;;15.75;15.75;;;;;5.63;67.76;100468.84;5055812;28;45526;-82
2023/01/19 10:49:45;;;;;;;;;21.25;20.25;;;;;5.67;67.73;100470.53;5049089;28;45847;-82
2023/01/19 10:52:38;;;;;;;;;18.50;18.50;;;;;5.64;68.25;100461.75;5056359;28;45404;-82
2023/01/19 10:55:06;;;;;;;;;24.25;21.00;;;;;5.63;68.06;100441.47;5054537;28;45897;-82
2023/01/19 10:57:35;;;;;;;;;17.75;17.75;;;;;5.80;68.78;100465.91;5050992;28;45396;-82
2023/01/19 11:00:01;;;;;;;;;25.25;21.75;;;;;5.83;67.91;100467.59;5053008;28;45552;-82
2023/01/19 11:02:30;;;;;;;;;22.00;17.25;;;;;5.63;67.88;100434.41;5054826;28;45751;-82
2023/01/19 11:04:58;;;;;;;;;25.00;22.50;;;;;5.68;67.58;100445.81;5041603;28;45389;-82
2023/01/19 11:07:29;;;;;;;;;22.50;20.00;;;;;5.71;67.89;100453.69;5036954;28;45438;-81
2023/01/19 11:10:21;;;;;;;;;27.50;23.00;;;;;5.77;67.62;100462.44;5038889;28;45697;-82
2023/01/19 11:12:54;;;;;;;;;27.25;23.00;;;;;5.67;68.04;100443.19;5038015;28;45323;-82
2023/01/19 11:15:22;;;;;;;;;22.00;19.75;;;;;5.63;68.18;100441.47;5041687;28;45227;-82
2023/01/19 11:17:48;;;;;;;;;23.00;20.00;;;;;5.66;67.82;100450.22;5043582;28;45492;-82
2023/01/19 11:20:28;;;;;;;;;25.25;21.75;;;;;5.66;68.01;100444.94;5042395;28;45440;-82
2023/01/19 11:23:17;;;;;;;;;22.75;19.25;;;;;5.76;68.54;100450.94;5039547;28;46319;-82
2023/01/19 11:25:46;;;;;;;;;25.25;19.00;;;;;5.64;68.54;100430.84;5041329;28;45297;-81
2023/01/19 11:28:41;;;;;;;;;24.50;22.75;;;;;5.67;68.62;100436.09;5058585;28;45541;-83
2023/01/19 11:31:12;;;;;;;;;18.00;18.00;;;;;5.86;68.44;100452.53;5042823;28;46195;-81
2023/01/19 11:33:47;;;;;;;;;23.50;19.75;;;;;5.81;68.40;100424.38;5047295;28;45377;-82
2023/01/19 11:36:23;;;;;;;;;23.50;20.75;;;;;5.95;68.39;100448.88;5055128;28;45252;-81
2023/01/19 11:39:10;;;;;;;;;26.50;22.75;;;;;5.92;68.62;100444.47;5040296;28;45583;-82
2023/01/19 11:41:38;;;;;;;;;22.50;20.25;;;;;5.83;68.34;100422.56;5039961;28;46152;-82
2023/01/19 11:44:32;;;;;;;;;22.75;18.75;;;;;5.99;68.77;100444.41;5045976;28;45667;-82
2023/01/19 11:47:10;;;;;;;;;19.25;17.25;;;;;5.93;68.43;100426.81;5052724;28;45496;-82
2023/01/19 11:49:58;;;;;;;;;23.50;21.00;;;;;6.01;67.94;100442.59;5053014;28;45484;-82
2023/01/19 11:52:48;;;;;;;;;27.75;22.75;;;;;6.00;67.65;100431.16;5055063;28;45684;-82